createdAt,value
2022-10-30T00:00:41.243Z,100.00
2022-10-30T00:03:14.031Z,100.00
2022-10-30T00:05:45.506Z,100.00
2022-10-30T00:08:13.794Z,100.00
2022-10-30T00:10:41.186Z,100.00
2022-10-30T00:13:08.190Z,100.00
2022-10-30T00:15:34.996Z,100.00
2022-10-30T00:18:02.031Z,100.00
2022-10-30T00:20:28.857Z,100.00
2022-10-30T00:22:55.993Z,100.00
2022-10-30T00:25:22.779Z,100.00
2022-10-30T00:27:49.326Z,100.00
2022-10-30T00:30:16.405Z,100.00
2022-10-30T00:32:43.856Z,100.00
2022-10-30T00:35:11.401Z,100.00
2022-10-30T00:37:39.012Z,100.00
2022-10-30T00:40:06.876Z,100.00
2022-10-30T00:42:33.662Z,100.00
2022-10-30T00:45:00.510Z,100.00
2022-10-30T00:47:38.569Z,100.00
2022-10-30T00:50:13.892Z,100.00
2022-10-30T00:52:50.740Z,100.00
2022-10-30T00:55:20.888Z,100.00
2022-10-30T00:57:48.543Z,100.00
2022-10-30T01:00:15.845Z,100.00
2022-10-30T01:02:43.789Z,100.00
2022-10-30T01:05:15.605Z,100.00
2022-10-30T01:07:42.126Z,100.00
2022-10-30T01:10:09.660Z,100.00
2022-10-30T01:12:36.514Z,100.00
2022-10-30T01:15:03.567Z,100.00
2022-10-30T01:17:53.146Z,100.00
2022-10-30T01:20:57.366Z,100.00
2022-10-30T01:23:48.833Z,100.00
2022-10-30T01:26:44.641Z,100.00
2022-10-30T01:29:40.424Z,100.00
2022-10-30T01:32:15.458Z,100.00
2022-10-30T01:35:07.976Z,100.00
2022-10-30T01:37:57.710Z,100.00
2022-10-30T01:40:24.886Z,100.00
2022-10-30T01:42:58.344Z,100.00
2022-10-30T01:46:03.977Z,100.00
2022-10-30T01:48:55.198Z,100.00
2022-10-30T01:51:39.462Z,100.00
2022-10-30T01:54:41.602Z,100.00
2022-10-30T01:57:41.296Z,100.00
2022-10-30T02:00:16.012Z,100.00
2022-10-30T02:02:49.365Z,100.00
2022-10-30T02:05:32.866Z,100.00
2022-10-30T02:07:59.707Z,100.00
2022-10-30T02:10:27.455Z,100.00
2022-10-30T02:12:54.506Z,100.00
2022-10-30T02:15:24.020Z,100.00
2022-10-30T02:17:50.576Z,100.00
2022-10-30T02:20:19.751Z,100.00
2022-10-30T02:22:47.270Z,100.00
2022-10-30T02:25:14.599Z,100.00
2022-10-30T02:27:41.588Z,100.00
2022-10-30T02:30:11.631Z,100.00
2022-10-30T02:32:38.338Z,100.00
2022-10-30T02:35:06.065Z,100.00
2022-10-30T02:37:32.797Z,100.00
2022-10-30T02:39:59.521Z,100.00
2022-10-30T02:42:26.016Z,100.00
2022-10-30T02:44:53.532Z,100.00
2022-10-30T02:47:20.240Z,100.00
2022-10-30T02:49:47.227Z,100.00
2022-10-30T02:52:13.785Z,100.00
2022-10-30T02:54:41.799Z,100.00
2022-10-30T02:57:09.523Z,100.00
2022-10-30T02:59:37.721Z,100.00
2022-10-30T03:02:04.319Z,100.00
2022-10-30T03:04:31.056Z,100.00
2022-10-30T03:06:57.728Z,100.00
2022-10-30T03:09:24.454Z,100.00
2022-10-30T03:11:50.984Z,100.00
2022-10-30T03:14:17.611Z,100.00
2022-10-30T03:16:44.133Z,100.00
2022-10-30T03:19:10.779Z,100.00
2022-10-30T03:21:37.315Z,100.00
2022-10-30T03:24:04.814Z,100.00
2022-10-30T03:26:32.333Z,100.00
2022-10-30T03:29:06.806Z,100.00
2022-10-30T03:31:33.841Z,100.00
2022-10-30T03:34:13.879Z,100.00
2022-10-30T03:36:41.750Z,100.00
2022-10-30T03:39:08.410Z,100.00
2022-10-30T03:41:35.795Z,100.00
2022-10-30T03:44:02.365Z,100.00
2022-10-30T03:46:31.411Z,100.00
2022-10-30T03:49:10.826Z,100.00
2022-10-30T03:51:37.732Z,100.00
2022-10-30T03:54:04.324Z,100.00
2022-10-30T03:56:32.717Z,100.00
2022-10-30T03:59:00.784Z,100.00
2022-10-30T04:01:28.197Z,100.00
2022-10-30T04:03:56.879Z,100.00
2022-10-30T04:06:25.042Z,100.00
2022-10-30T04:08:53.931Z,100.00
2022-10-30T04:11:20.611Z,100.00
2022-10-30T04:13:47.131Z,100.00
2022-10-30T04:16:13.677Z,100.00
2022-10-30T04:18:40.831Z,100.00
2022-10-30T04:21:07.417Z,100.00
2022-10-30T04:23:35.739Z,100.00
2022-10-30T04:26:02.339Z,100.00
2022-10-30T04:28:29.067Z,100.00
2022-10-30T04:30:56.459Z,100.00
2022-10-30T04:33:25.551Z,100.00
2022-10-30T04:35:52.073Z,100.00
2022-10-30T04:38:20.420Z,100.00
2022-10-30T04:40:48.109Z,100.00
2022-10-30T04:43:16.262Z,100.00
2022-10-30T04:45:47.549Z,100.00
2022-10-30T04:48:16.858Z,100.00
2022-10-30T04:50:44.422Z,100.00
2022-10-30T04:53:19.060Z,100.00
2022-10-30T04:55:48.045Z,100.00
2022-10-30T04:58:15.121Z,100.00
2022-10-30T05:00:43.757Z,100.00
2022-10-30T05:03:23.128Z,100.00
2022-10-30T05:05:58.157Z,100.00
2022-10-30T05:08:24.886Z,100.00
2022-10-30T05:10:52.209Z,100.00
2022-10-30T05:13:18.994Z,100.00
2022-10-30T05:15:45.684Z,100.00
2022-10-30T05:18:12.242Z,100.00
2022-10-30T05:20:38.977Z,100.00
2022-10-30T05:23:05.669Z,100.00
2022-10-30T05:25:32.655Z,100.00
2022-10-30T05:28:02.534Z,100.00
2022-10-30T05:30:33.014Z,100.00
2022-10-30T05:33:01.295Z,100.00
2022-10-30T05:35:30.367Z,100.00
2022-10-30T05:37:57.458Z,100.00
2022-10-30T05:40:24.184Z,100.00
2022-10-30T05:42:51.534Z,100.00
2022-10-30T05:45:18.420Z,100.00
2022-10-30T05:47:55.270Z,100.00
2022-10-30T05:50:23.193Z,100.00
2022-10-30T05:53:10.413Z,100.00
2022-10-30T05:55:38.760Z,100.00
2022-10-30T05:58:17.194Z,100.00
2022-10-30T06:00:47.593Z,100.00
2022-10-30T06:03:19.583Z,100.00
2022-10-30T06:05:47.240Z,100.00
2022-10-30T06:08:16.268Z,100.00
2022-10-30T06:10:43.880Z,100.00
2022-10-30T06:13:16.756Z,100.00
2022-10-30T06:16:01.659Z,100.00
2022-10-30T06:18:46.584Z,100.00
2022-10-30T06:21:13.481Z,100.00
2022-10-30T06:23:49.545Z,100.00
2022-10-30T06:26:32.685Z,100.00
2022-10-30T06:29:05.294Z,100.00
2022-10-30T06:31:31.884Z,100.00
2022-10-30T06:34:00.356Z,100.00
2022-10-30T06:36:28.009Z,100.00
2022-10-30T06:38:54.575Z,100.00
2022-10-30T06:41:29.070Z,100.00
2022-10-30T06:44:15.211Z,100.00
2022-10-30T06:46:41.740Z,100.00
2022-10-30T06:49:08.663Z,100.00
2022-10-30T06:51:35.324Z,100.00
2022-10-30T06:54:02.838Z,100.00
2022-10-30T06:56:52.603Z,100.00
2022-10-30T06:59:44.197Z,100.00
2022-10-30T07:02:24.576Z,100.00
2022-10-30T07:04:54.872Z,100.00
2022-10-30T07:07:21.573Z,100.00
2022-10-30T07:09:48.426Z,100.00
2022-10-30T07:12:17.534Z,100.00
2022-10-30T07:14:56.169Z,100.00
2022-10-30T07:17:52.414Z,100.00
2022-10-30T07:20:22.400Z,100.00
2022-10-30T07:22:49.056Z,100.00
2022-10-30T07:25:15.986Z,100.00
2022-10-30T07:27:57.659Z,100.00
2022-10-30T07:30:31.539Z,100.00
2022-10-30T07:33:15.082Z,100.00
2022-10-30T07:36:14.961Z,100.00
2022-10-30T07:39:03.546Z,100.00
2022-10-30T07:41:37.705Z,100.00
2022-10-30T07:44:32.898Z,100.00
2022-10-30T07:47:18.589Z,100.00
2022-10-30T07:50:06.039Z,100.00
2022-10-30T07:52:33.625Z,100.00
2022-10-30T07:55:00.617Z,100.00
2022-10-30T07:57:56.948Z,100.00
2022-10-30T08:00:56.486Z,100.00
2022-10-30T08:03:30.271Z,100.00
2022-10-30T08:06:04.265Z,100.00
2022-10-30T08:08:39.090Z,100.00
2022-10-30T08:11:42.054Z,100.00
2022-10-30T08:14:08.575Z,100.00
2022-10-30T08:16:35.416Z,100.00
2022-10-30T08:19:02.629Z,100.00
2022-10-30T08:21:29.296Z,100.00
2022-10-30T08:24:01.697Z,100.00
2022-10-30T08:26:31.561Z,100.00
2022-10-30T08:28:58.128Z,100.00
2022-10-30T08:31:26.307Z,100.00
2022-10-30T08:34:02.067Z,100.00
2022-10-30T08:36:54.928Z,100.00
2022-10-30T08:39:22.085Z,100.00
2022-10-30T08:41:56.706Z,100.00
2022-10-30T08:44:23.385Z,100.00
2022-10-30T08:47:19.243Z,100.00
2022-10-30T08:49:46.442Z,100.00
2022-10-30T08:52:15.573Z,100.00
2022-10-30T08:54:44.483Z,100.00
2022-10-30T08:57:11.550Z,100.00
2022-10-30T08:59:39.348Z,100.00
2022-10-30T09:02:12.766Z,100.00
2022-10-30T09:05:19.481Z,100.00
2022-10-30T09:08:04.375Z,100.00
2022-10-30T09:10:59.401Z,100.00
2022-10-30T09:13:26.682Z,100.00
2022-10-30T09:15:54.656Z,100.00
2022-10-30T09:18:21.691Z,100.00
2022-10-30T09:20:49.674Z,100.00
2022-10-30T09:23:16.409Z,100.00
2022-10-30T09:25:45.967Z,100.00
2022-10-30T09:28:35.428Z,100.00
2022-10-30T09:31:22.019Z,99.76
2022-10-30T09:33:49.079Z,99.57
2022-10-30T09:36:33.966Z,98.30
2022-10-30T09:39:01.084Z,98.23
2022-10-30T09:41:58.528Z,97.75
2022-10-30T09:45:08.096Z,95.69
2022-10-30T09:47:44.065Z,94.75
2022-10-30T09:50:26.155Z,93.28
2022-10-30T09:53:07.112Z,92.70
2022-10-30T09:55:49.261Z,92.20
2022-10-30T09:58:28.074Z,92.31
2022-10-30T10:01:21.424Z,92.32
2022-10-30T10:04:00.757Z,92.70
2022-10-30T10:06:44.845Z,91.85
2022-10-30T10:09:43.680Z,91.24
2022-10-30T10:12:35.284Z,90.14
2022-10-30T10:15:10.593Z,88.73
2022-10-30T10:17:41.412Z,88.03
2022-10-30T10:20:20.364Z,87.94
2022-10-30T10:22:50.409Z,86.97
2022-10-30T10:25:20.776Z,85.92
2022-10-30T10:27:59.489Z,85.25
2022-10-30T10:30:36.925Z,84.02
2022-10-30T10:33:57.633Z,84.00
2022-10-30T10:36:33.606Z,83.97
2022-10-30T10:39:25.027Z,83.26
2022-10-30T10:42:24.782Z,83.22
2022-10-30T10:45:04.424Z,83.59
2022-10-30T10:47:54.382Z,83.26
2022-10-30T10:50:46.692Z,82.83
2022-10-30T10:53:57.440Z,82.79
2022-10-30T10:56:33.723Z,81.89
2022-10-30T10:59:08.884Z,82.04
2022-10-30T11:01:40.334Z,80.50
2022-10-30T11:04:29.070Z,81.16
2022-10-30T11:06:57.132Z,79.79
2022-10-30T11:09:27.207Z,79.84
2022-10-30T11:11:55.563Z,78.49
2022-10-30T11:14:29.046Z,78.60
2022-10-30T11:17:08.234Z,76.71
2022-10-30T11:19:34.900Z,76.50
2022-10-30T11:22:04.154Z,75.84
2022-10-30T11:24:36.579Z,76.29
2022-10-30T11:27:24.219Z,74.40
2022-10-30T11:30:01.235Z,74.24
2022-10-30T11:32:30.808Z,73.22
2022-10-30T11:35:03.518Z,72.91
2022-10-30T11:37:33.041Z,73.24
2022-10-30T11:40:07.416Z,73.58
2022-10-30T11:42:35.234Z,73.26
2022-10-30T11:45:03.225Z,72.83
2022-10-30T11:47:38.369Z,73.58
2022-10-30T11:50:15.279Z,73.42
2022-10-30T11:52:43.930Z,73.34
2022-10-30T11:55:36.275Z,71.33
2022-10-30T11:58:05.095Z,71.08
2022-10-30T12:00:34.417Z,71.20
2022-10-30T12:03:01.613Z,72.01
2022-10-30T12:05:32.870Z,72.59
2022-10-30T12:08:08.625Z,72.99
2022-10-30T12:10:52.396Z,72.26
2022-10-30T12:13:21.596Z,72.53
2022-10-30T12:15:50.857Z,73.28
2022-10-30T12:18:24.798Z,72.48
2022-10-30T12:20:54.312Z,71.45
2022-10-30T12:23:25.788Z,71.80
2022-10-30T12:25:54.940Z,69.53
2022-10-30T12:28:24.760Z,70.04
2022-10-30T12:30:51.370Z,70.58
2022-10-30T12:33:23.032Z,69.37
2022-10-30T12:35:56.943Z,70.03
2022-10-30T12:38:42.239Z,70.33
2022-10-30T12:41:18.777Z,70.13
2022-10-30T12:43:58.092Z,70.05
2022-10-30T12:46:40.215Z,69.92
2022-10-30T12:49:26.359Z,70.53
2022-10-30T12:52:02.414Z,70.61
2022-10-30T12:54:42.707Z,70.74
2022-10-30T12:57:15.842Z,70.73
2022-10-30T13:00:07.501Z,70.66
2022-10-30T13:02:42.655Z,71.19
2022-10-30T13:05:25.960Z,69.91
2022-10-30T13:08:04.501Z,68.94
2022-10-30T13:10:46.062Z,69.54
2022-10-30T13:13:21.668Z,70.22
2022-10-30T13:15:57.553Z,69.63
2022-10-30T13:18:31.481Z,70.19
2022-10-30T13:21:11.225Z,70.52
2022-10-30T13:23:48.497Z,70.78
2022-10-30T13:26:26.976Z,70.32
2022-10-30T13:29:23.414Z,70.36
2022-10-30T13:31:50.664Z,70.11
2022-10-30T13:34:19.969Z,70.23
2022-10-30T13:36:54.323Z,69.75
2022-10-30T13:39:36.386Z,69.60
2022-10-30T13:42:25.092Z,69.43
2022-10-30T13:44:54.311Z,69.75
2022-10-30T13:47:29.913Z,69.36
2022-10-30T13:50:28.817Z,69.41
2022-10-30T13:52:58.970Z,69.01
2022-10-30T13:55:35.911Z,68.91
2022-10-30T13:58:02.442Z,69.23
2022-10-30T14:00:34.755Z,69.46
2022-10-30T14:03:26.191Z,69.59
2022-10-30T14:06:07.904Z,69.51
2022-10-30T14:09:02.220Z,69.46
2022-10-30T14:11:28.756Z,69.87
2022-10-30T14:13:57.974Z,69.76
2022-10-30T14:16:46.516Z,69.60
2022-10-30T14:19:16.923Z,69.37
2022-10-30T14:21:44.769Z,69.54
2022-10-30T14:24:21.105Z,69.64
2022-10-30T14:26:55.010Z,69.71
2022-10-30T14:29:33.896Z,69.67
2022-10-30T14:32:01.668Z,69.81
2022-10-30T14:34:50.406Z,69.91
2022-10-30T14:37:24.159Z,69.92
2022-10-30T14:39:51.863Z,70.00
2022-10-30T14:42:50.983Z,70.70
2022-10-30T14:45:25.756Z,71.64
2022-10-30T14:47:58.456Z,71.79
2022-10-30T14:50:40.176Z,71.88
2022-10-30T14:53:30.223Z,71.93
2022-10-30T14:58:42.073Z,72.61
2022-10-30T15:01:27.522Z,73.32
2022-10-30T15:04:13.430Z,74.66
2022-10-30T15:06:39.941Z,76.43
2022-10-30T15:09:48.388Z,78.15
2022-10-30T15:12:35.868Z,79.30
2022-10-30T15:15:09.641Z,80.20
2022-10-30T15:17:45.267Z,81.09
2022-10-30T15:20:25.830Z,81.90
2022-10-30T15:22:59.706Z,82.32
2022-10-30T15:25:33.498Z,83.12
2022-10-30T15:28:00.858Z,83.75
2022-10-30T15:30:28.402Z,84.41
2022-10-30T15:32:55.191Z,85.16
2022-10-30T15:35:27.406Z,85.89
2022-10-30T15:38:07.169Z,86.56
2022-10-30T15:40:35.390Z,87.26
2022-10-30T15:43:04.525Z,87.44
2022-10-30T15:45:37.006Z,88.05
2022-10-30T15:48:19.403Z,87.94
2022-10-30T15:50:54.690Z,88.23
2022-10-30T15:53:27.343Z,88.44
2022-10-30T15:55:58.748Z,88.79
2022-10-30T15:58:25.653Z,89.14
2022-10-30T16:01:01.368Z,89.39
2022-10-30T16:03:29.255Z,89.63
2022-10-30T16:06:17.656Z,90.18
2022-10-30T16:08:46.868Z,90.15
2022-10-30T16:11:14.918Z,90.48
2022-10-30T16:13:42.274Z,90.72
2022-10-30T16:16:17.118Z,90.66
2022-10-30T16:18:44.278Z,90.81
2022-10-30T16:21:15.918Z,91.20
2022-10-30T16:23:55.150Z,91.35
2022-10-30T16:26:27.146Z,91.61
2022-10-30T16:28:53.730Z,91.58
2022-10-30T16:31:20.814Z,91.49
2022-10-30T16:33:48.182Z,91.77
2022-10-30T16:36:17.911Z,91.74
2022-10-30T16:38:48.255Z,92.07
2022-10-30T16:41:15.168Z,92.31
2022-10-30T16:43:48.444Z,92.15
2022-10-30T16:46:14.933Z,92.28
2022-10-30T16:48:46.679Z,92.33
2022-10-30T16:51:17.968Z,92.54
2022-10-30T16:53:48.798Z,92.53
2022-10-30T16:56:25.852Z,92.47
2022-10-30T16:58:56.186Z,92.68
2022-10-30T17:01:27.938Z,92.45
2022-10-30T17:03:55.764Z,92.65
2022-10-30T17:06:44.715Z,92.90
2022-10-30T17:09:28.775Z,93.03
2022-10-30T17:12:13.976Z,93.05
2022-10-30T17:14:46.642Z,92.99
2022-10-30T17:17:31.768Z,93.30
2022-10-30T17:20:23.764Z,93.52
2022-10-30T17:23:16.579Z,93.59
2022-10-30T17:25:43.522Z,93.58
2022-10-30T17:28:27.461Z,93.56
2022-10-30T17:30:57.640Z,93.79
2022-10-30T17:33:37.106Z,93.98
2022-10-30T17:36:05.925Z,93.99
2022-10-30T17:38:32.663Z,94.05
2022-10-30T17:41:00.129Z,94.63
2022-10-30T17:43:30.107Z,94.43
2022-10-30T17:45:57.619Z,95.22
2022-10-30T17:48:26.972Z,95.18
2022-10-30T17:50:53.864Z,95.26
2022-10-30T17:53:23.225Z,95.47
2022-10-30T17:55:58.985Z,96.13
2022-10-30T17:58:25.667Z,96.32
2022-10-30T18:00:52.325Z,96.25
2022-10-30T18:03:18.965Z,96.86
2022-10-30T18:05:46.749Z,97.37
2022-10-30T18:08:13.291Z,97.05
2022-10-30T18:10:39.853Z,97.60
2022-10-30T18:13:06.396Z,97.58
2022-10-30T18:15:45.232Z,97.89
2022-10-30T18:18:11.779Z,98.51
2022-10-30T18:20:38.807Z,98.44
2022-10-30T18:26:20.904Z,99.26
2022-10-30T18:28:48.006Z,99.04
2022-10-30T18:31:16.933Z,99.22
2022-10-30T18:33:44.234Z,99.69
2022-10-30T18:36:17.011Z,99.70
2022-10-30T18:38:44.260Z,100.00
2022-10-30T18:41:44.870Z,99.80
2022-10-30T18:44:16.158Z,100.00
2022-10-30T18:46:43.163Z,100.00
2022-10-30T18:49:09.768Z,100.00
2022-10-30T18:51:36.393Z,100.00
2022-10-30T18:54:03.193Z,100.00
2022-10-30T18:56:32.669Z,100.00
2022-10-30T18:59:01.711Z,100.00
2022-10-30T19:01:29.910Z,100.00
2022-10-30T19:03:58.655Z,100.00
2022-10-30T19:06:25.189Z,100.00
2022-10-30T19:08:51.730Z,100.00
2022-10-30T19:11:24.319Z,100.00
2022-10-30T19:13:52.642Z,100.00
2022-10-30T19:16:21.472Z,100.00
2022-10-30T19:18:48.759Z,100.00
2022-10-30T19:21:18.382Z,100.00
2022-10-30T19:23:45.291Z,100.00
2022-10-30T19:26:14.622Z,100.00
2022-10-30T19:28:41.693Z,100.00
2022-10-30T19:31:13.707Z,100.00
2022-10-30T19:33:40.192Z,100.00
2022-10-30T19:36:06.967Z,100.00
2022-10-30T19:38:34.015Z,100.00
2022-10-30T19:41:00.825Z,100.00
2022-10-30T19:43:27.764Z,100.00
2022-10-30T19:45:56.941Z,100.00
2022-10-30T19:48:47.736Z,100.00
2022-10-30T19:51:11.903Z,100.00
2022-10-30T19:53:40.043Z,100.00
2022-10-30T19:56:07.105Z,100.00
2022-10-30T19:58:33.730Z,100.00
2022-10-30T20:01:00.398Z,100.00
2022-10-30T20:03:27.085Z,100.00
2022-10-30T20:05:55.598Z,100.00
2022-10-30T20:08:24.219Z,100.00
2022-10-30T20:10:55.803Z,100.00
2022-10-30T20:13:23.569Z,100.00
2022-10-30T20:15:51.519Z,100.00
2022-10-30T20:18:20.822Z,100.00
2022-10-30T20:20:55.795Z,100.00
2022-10-30T20:23:23.886Z,100.00
2022-10-30T20:25:59.409Z,100.00
2022-10-30T20:28:27.564Z,100.00
2022-10-30T20:30:54.892Z,100.00
2022-10-30T20:33:22.783Z,100.00
2022-10-30T20:35:50.638Z,100.00
2022-10-30T20:38:19.652Z,100.00
2022-10-30T20:40:47.626Z,100.00
2022-10-30T20:43:20.048Z,100.00
2022-10-30T20:45:47.517Z,100.00
2022-10-30T20:48:14.159Z,100.00
2022-10-30T20:50:40.987Z,100.00
2022-10-30T20:53:12.739Z,100.00
2022-10-30T20:55:40.307Z,100.00
2022-10-30T20:58:07.046Z,100.00
2022-10-30T21:00:33.853Z,100.00
2022-10-30T21:03:05.107Z,100.00
2022-10-30T21:05:45.092Z,100.00
2022-10-30T21:08:13.780Z,100.00
2022-10-30T21:10:41.267Z,100.00
2022-10-30T21:13:09.625Z,100.00
2022-10-30T21:15:42.623Z,100.00
2022-10-30T21:18:11.425Z,100.00
2022-10-30T21:20:38.770Z,100.00
2022-10-30T21:23:05.944Z,100.00
2022-10-30T21:25:32.973Z,100.00
2022-10-30T21:28:00.418Z,100.00
2022-10-30T21:30:27.862Z,100.00
2022-10-30T21:32:54.433Z,100.00
2022-10-30T21:35:20.973Z,100.00
2022-10-30T21:37:47.649Z,100.00
2022-10-30T21:40:14.247Z,100.00
2022-10-30T21:42:40.893Z,100.00
2022-10-30T21:45:08.283Z,100.00
2022-10-30T21:47:34.865Z,100.00
2022-10-30T21:50:06.056Z,100.00
2022-10-30T21:52:36.146Z,100.00
2022-10-30T21:55:02.960Z,100.00
2022-10-30T21:57:29.758Z,100.00
2022-10-30T21:59:58.778Z,100.00
2022-10-30T22:02:31.087Z,100.00
2022-10-30T22:04:57.581Z,100.00
2022-10-30T22:07:24.241Z,100.00
2022-10-30T22:09:50.862Z,100.00
2022-10-30T22:12:20.410Z,100.00
2022-10-30T22:14:46.955Z,100.00
2022-10-30T22:17:13.524Z,100.00
2022-10-30T22:19:40.012Z,100.00
2022-10-30T22:22:06.979Z,100.00
2022-10-30T22:24:33.617Z,100.00
2022-10-30T22:27:00.251Z,100.00
2022-10-30T22:29:26.765Z,100.00
2022-10-30T22:31:53.257Z,100.00
2022-10-30T22:34:19.725Z,100.00
2022-10-30T22:36:46.896Z,100.00
2022-10-30T22:39:14.265Z,100.00
2022-10-30T22:41:41.746Z,100.00
2022-10-30T22:44:12.643Z,100.00
2022-10-30T22:46:39.642Z,100.00
2022-10-30T22:49:07.114Z,100.00
2022-10-30T22:51:35.997Z,100.00
2022-10-30T22:54:05.081Z,100.00
2022-10-30T22:56:34.090Z,100.00
2022-10-30T22:59:02.712Z,100.00
2022-10-30T23:01:31.903Z,100.00
2022-10-30T23:04:00.263Z,100.00
2022-10-30T23:06:28.837Z,100.00
2022-10-30T23:08:56.846Z,100.00
2022-10-30T23:11:23.616Z,100.00
2022-10-30T23:13:50.211Z,100.00
2022-10-30T23:16:22.202Z,100.00
2022-10-30T23:18:49.952Z,100.00
2022-10-30T23:21:22.172Z,100.00
2022-10-30T23:23:49.404Z,100.00
2022-10-30T23:26:19.247Z,100.00
2022-10-30T23:28:46.844Z,100.00
2022-10-30T23:31:20.678Z,100.00
2022-10-30T23:33:51.432Z,100.00
2022-10-30T23:36:18.839Z,100.00
2022-10-30T23:38:51.147Z,100.00
2022-10-30T23:41:17.661Z,100.00
2022-10-30T23:43:44.222Z,100.00
2022-10-30T23:46:10.809Z,100.00
2022-10-30T23:48:37.281Z,100.00
2022-10-30T23:51:08.259Z,100.00
2022-10-30T23:53:35.337Z,100.00
2022-10-30T23:56:02.151Z,100.00
2022-10-30T23:58:28.660Z,100.00
